createdAt,value
2022-09-10T00:02:07.136Z,16.37
2022-09-10T00:04:34.159Z,16.36
2022-09-10T00:07:00.938Z,16.36
2022-09-10T00:09:27.629Z,16.33
2022-09-10T00:11:54.645Z,16.20
2022-09-10T00:14:23.492Z,16.32
2022-09-10T00:16:50.374Z,16.31
2022-09-10T00:19:17.935Z,16.15
2022-09-10T00:21:50.324Z,16.24
2022-09-10T00:24:17.176Z,16.19
2022-09-10T00:26:43.836Z,16.11
2022-09-10T00:29:12.902Z,15.97
2022-09-10T00:31:39.946Z,15.88
2022-09-10T00:34:07.072Z,16.03
2022-09-10T00:36:38.499Z,16.07
2022-09-10T00:39:08.583Z,16.09
2022-09-10T00:41:38.091Z,16.04
2022-09-10T00:44:26.013Z,15.97
2022-09-10T00:46:54.464Z,15.97
2022-09-10T00:49:23.455Z,16.11
2022-09-10T00:51:52.911Z,16.20
2022-09-10T00:54:23.719Z,16.22
2022-09-10T00:56:54.562Z,15.92
2022-09-10T00:59:26.140Z,16.15
2022-09-10T01:01:52.854Z,16.21
2022-09-10T01:04:19.964Z,16.27
2022-09-10T01:06:51.636Z,16.28
2022-09-10T01:09:20.234Z,16.28
2022-09-10T01:12:19.781Z,16.23
2022-09-10T01:15:05.311Z,16.26
2022-09-10T01:17:44.958Z,16.29
2022-09-10T01:20:23.160Z,16.20
2022-09-10T01:23:15.755Z,16.27
2022-09-10T01:25:56.156Z,16.28
2022-09-10T01:28:34.514Z,16.37
2022-09-10T01:31:11.331Z,16.32
2022-09-10T01:33:47.704Z,16.05
2022-09-10T01:36:23.722Z,15.99
2022-09-10T01:38:51.664Z,15.94
2022-09-10T01:41:23.570Z,15.89
2022-09-10T01:43:56.125Z,15.55
2022-09-10T01:46:50.660Z,15.83
2022-09-10T01:49:38.487Z,15.82
2022-09-10T01:52:26.218Z,15.89
2022-09-10T01:55:03.979Z,16.02
2022-09-10T01:57:50.170Z,15.99
2022-09-10T02:00:21.849Z,15.93
2022-09-10T02:02:52.180Z,15.83
2022-09-10T02:05:22.188Z,15.70
2022-09-10T02:07:58.857Z,15.73
2022-09-10T02:10:26.200Z,15.72
2022-09-10T02:12:53.969Z,15.74
2022-09-10T02:15:39.868Z,15.43
2022-09-10T02:18:32.824Z,15.61
2022-09-10T02:21:02.742Z,15.64
2022-09-10T02:23:39.514Z,15.69
2022-09-10T02:26:06.431Z,15.74
2022-09-10T02:28:33.816Z,15.81
2022-09-10T02:31:01.608Z,15.77
2022-09-10T02:33:28.379Z,15.61
2022-09-10T02:35:55.402Z,15.73
2022-09-10T02:38:22.735Z,15.75
2022-09-10T02:40:49.477Z,15.69
2022-09-10T02:43:17.325Z,15.90
2022-09-10T02:45:44.591Z,15.48
2022-09-10T02:48:11.284Z,15.80
2022-09-10T02:50:38.978Z,16.12
2022-09-10T02:53:06.895Z,16.00
2022-09-10T02:55:33.581Z,15.88
2022-09-10T02:58:00.248Z,15.91
2022-09-10T03:00:27.272Z,16.21
2022-09-10T03:03:00.900Z,16.12
2022-09-10T03:05:29.570Z,16.13
2022-09-10T03:07:57.837Z,15.97
2022-09-10T03:10:24.859Z,15.99
2022-09-10T03:12:52.038Z,16.26
2022-09-10T03:15:20.503Z,16.21
2022-09-10T03:17:47.424Z,16.01
2022-09-10T03:20:14.461Z,15.66
2022-09-10T03:22:41.224Z,16.05
2022-09-10T03:25:11.671Z,15.72
2022-09-10T03:27:38.537Z,15.92
2022-09-10T03:30:10.020Z,15.82
2022-09-10T03:32:37.200Z,15.66
2022-09-10T03:35:05.965Z,15.44
2022-09-10T03:37:32.819Z,15.86
2022-09-10T03:39:59.455Z,15.84
2022-09-10T03:42:26.130Z,15.91
2022-09-10T03:44:53.211Z,15.96
2022-09-10T03:47:19.797Z,15.85
2022-09-10T03:49:46.741Z,15.92
2022-09-10T03:52:13.697Z,15.82
2022-09-10T03:54:42.414Z,16.03
2022-09-10T03:57:09.051Z,16.00
2022-09-10T03:59:35.698Z,16.07
2022-09-10T04:02:02.981Z,16.10
2022-09-10T04:04:31.396Z,16.09
2022-09-10T04:06:58.013Z,15.44
2022-09-10T04:09:24.638Z,15.63
2022-09-10T04:11:51.847Z,15.95
2022-09-10T04:14:21.504Z,15.90
2022-09-10T04:17:09.667Z,15.41
2022-09-10T04:19:36.363Z,15.66
2022-09-10T04:22:03.029Z,15.55
2022-09-10T04:24:31.155Z,15.61
2022-09-10T04:26:58.885Z,15.54
2022-09-10T04:29:25.549Z,15.85
2022-09-10T04:31:52.277Z,15.75
2022-09-10T04:34:20.477Z,15.56
2022-09-10T04:36:47.084Z,15.90
2022-09-10T04:39:14.563Z,15.63
2022-09-10T04:41:41.795Z,15.69
2022-09-10T04:44:08.663Z,15.45
2022-09-10T04:46:36.283Z,15.90
2022-09-10T04:49:04.699Z,15.68
2022-09-10T04:51:32.785Z,15.49
2022-09-10T04:53:59.563Z,15.70
2022-09-10T04:56:30.997Z,15.44
2022-09-10T04:58:58.796Z,15.65
2022-09-10T05:01:26.785Z,15.77
2022-09-10T05:03:53.635Z,15.59
2022-09-10T05:06:20.394Z,15.62
2022-09-10T05:08:48.028Z,15.64
2022-09-10T05:11:14.836Z,15.57
2022-09-10T05:13:42.972Z,15.77
2022-09-10T05:16:10.623Z,15.70
2022-09-10T05:18:37.519Z,15.55
2022-09-10T05:21:05.359Z,15.53
2022-09-10T05:23:35.738Z,15.86
2022-09-10T05:26:02.365Z,15.48
2022-09-10T05:28:30.022Z,15.82
2022-09-10T05:30:56.655Z,15.57
2022-09-10T05:33:26.370Z,15.66
2022-09-10T05:35:53.104Z,15.91
2022-09-10T05:38:21.202Z,15.59
2022-09-10T05:40:48.941Z,15.80
2022-09-10T05:43:15.775Z,15.86
2022-09-10T05:45:44.399Z,15.95
2022-09-10T05:48:11.007Z,16.03
2022-09-10T05:50:38.463Z,15.86
2022-09-10T05:53:05.326Z,16.14
2022-09-10T05:55:33.204Z,15.71
2022-09-10T05:58:00.264Z,16.07
2022-09-10T06:00:27.114Z,15.92
2022-09-10T06:03:02.778Z,15.78
2022-09-10T06:05:51.172Z,16.00
2022-09-10T06:08:24.239Z,16.32
2022-09-10T06:11:01.104Z,16.28
2022-09-10T06:13:35.709Z,16.31
2022-09-10T06:16:02.971Z,16.08
2022-09-10T06:18:30.645Z,16.29
2022-09-10T06:21:14.157Z,16.25
2022-09-10T06:23:43.206Z,16.22
2022-09-10T06:26:17.013Z,16.36
2022-09-10T06:28:44.584Z,16.44
2022-09-10T06:31:16.986Z,16.30
2022-09-10T06:33:44.998Z,16.44
2022-09-10T06:36:11.787Z,16.47
2022-09-10T06:38:40.917Z,16.52
2022-09-10T06:41:13.454Z,16.51
2022-09-10T06:43:47.416Z,16.66
2022-09-10T06:47:09.549Z,16.69
2022-09-10T06:49:21.624Z,17.08
2022-09-10T06:51:51.433Z,17.04
2022-09-10T06:54:18.821Z,16.93
2022-09-10T06:56:47.031Z,16.90
2022-09-10T06:59:18.192Z,16.99
2022-09-10T07:01:48.247Z,16.96
2022-09-10T07:04:16.124Z,16.99
2022-09-10T07:06:43.299Z,16.98
2022-09-10T07:09:14.393Z,16.75
2022-09-10T07:12:09.389Z,16.71
2022-09-10T07:14:38.502Z,16.51
2022-09-10T07:17:07.545Z,16.52
2022-09-10T07:19:36.202Z,16.44
2022-09-10T07:22:05.496Z,16.63
2022-09-10T07:24:33.994Z,16.64
2022-09-10T07:27:27.755Z,16.70
2022-09-10T07:29:55.807Z,16.86
2022-09-10T07:32:23.188Z,16.45
2022-09-10T07:34:58.032Z,16.72
2022-09-10T07:37:27.974Z,16.79
2022-09-10T07:39:55.238Z,16.84
2022-09-10T07:42:22.184Z,16.79
2022-09-10T07:44:51.428Z,16.98
2022-09-10T07:47:18.656Z,17.22
2022-09-10T07:49:45.444Z,17.26
2022-09-10T07:52:13.456Z,17.42
2022-09-10T07:54:48.760Z,17.60
2022-09-10T07:57:15.560Z,17.66
2022-09-10T07:59:42.168Z,17.34
2022-09-10T08:02:14.954Z,17.65
2022-09-10T08:04:46.382Z,17.67
2022-09-10T08:07:17.170Z,17.91
2022-09-10T08:09:43.773Z,18.19
2022-09-10T08:12:17.303Z,18.13
2022-09-10T08:14:44.791Z,17.89
2022-09-10T08:17:12.539Z,17.80
2022-09-10T08:19:42.751Z,17.78
2022-09-10T08:22:13.607Z,18.05
2022-09-10T08:24:47.759Z,18.12
2022-09-10T08:27:16.060Z,18.05
2022-09-10T08:29:43.473Z,17.78
2022-09-10T08:32:13.043Z,17.88
2022-09-10T08:34:40.589Z,17.98
2022-09-10T08:37:09.431Z,17.98
2022-09-10T08:39:37.528Z,17.87
2022-09-10T08:42:16.216Z,17.79
2022-09-10T08:44:50.312Z,17.77
2022-09-10T08:47:53.462Z,17.92
2022-09-10T08:50:39.088Z,18.03
2022-09-10T08:53:49.822Z,18.05
2022-09-10T08:56:21.140Z,17.98
2022-09-10T08:58:54.823Z,18.03
2022-09-10T09:01:31.359Z,18.17
2022-09-10T09:04:00.821Z,18.27
2022-09-10T09:06:38.039Z,18.33
2022-09-10T09:09:05.836Z,18.26
2022-09-10T09:12:01.715Z,18.60
2022-09-10T09:15:08.201Z,18.62
2022-09-10T09:17:45.294Z,19.15
2022-09-10T09:20:24.555Z,19.20
2022-09-10T09:22:55.783Z,19.57
2022-09-10T09:25:58.880Z,19.54
2022-09-10T09:28:43.443Z,19.24
2022-09-10T09:31:23.130Z,19.26
2022-09-10T09:33:56.753Z,19.30
2022-09-10T09:36:34.425Z,19.15
2022-09-10T09:39:11.114Z,19.09
2022-09-10T09:42:00.321Z,18.83
2022-09-10T09:44:38.802Z,18.91
2022-09-10T09:47:05.612Z,19.28
2022-09-10T09:49:32.637Z,19.40
2022-09-10T09:52:03.019Z,19.97
2022-09-10T09:57:20.501Z,20.38
2022-09-10T09:59:49.389Z,19.94
2022-09-10T10:02:22.462Z,20.04
2022-09-10T10:05:01.024Z,19.78
2022-09-10T10:07:33.569Z,19.35
2022-09-10T10:10:01.143Z,19.42
2022-09-10T10:12:33.123Z,19.87
2022-09-10T10:15:01.035Z,21.08
2022-09-10T10:17:40.066Z,21.25
2022-09-10T10:20:09.992Z,21.21
2022-09-10T10:22:38.866Z,20.98
2022-09-10T10:25:27.160Z,21.72
2022-09-10T10:27:54.363Z,20.54
2022-09-10T10:30:24.901Z,20.47
2022-09-10T10:32:57.972Z,20.32
2022-09-10T10:35:27.361Z,20.93
2022-09-10T10:38:04.040Z,21.15
2022-09-10T10:40:57.046Z,21.31
2022-09-10T10:43:37.756Z,20.59
2022-09-10T10:46:53.936Z,19.87
2022-09-10T10:49:45.087Z,19.87
2022-09-10T10:52:23.901Z,19.83
2022-09-10T10:55:12.034Z,19.81
2022-09-10T10:58:00.532Z,19.65
2022-09-10T11:00:31.863Z,19.57
2022-09-10T11:03:22.526Z,19.04
2022-09-10T11:05:56.002Z,19.38
2022-09-10T11:08:45.886Z,19.21
2022-09-10T11:11:18.601Z,19.13
2022-09-10T11:13:54.344Z,19.56
2022-09-10T11:16:46.701Z,19.42
2022-09-10T11:19:26.932Z,19.56
2022-09-10T11:21:59.660Z,19.59
2022-09-10T11:24:29.181Z,19.44
2022-09-10T11:27:06.502Z,19.52
2022-09-10T11:30:06.001Z,19.76
2022-09-10T11:32:35.429Z,20.02
2022-09-10T11:35:06.998Z,19.81
2022-09-10T11:37:58.572Z,20.22
2022-09-10T11:40:52.189Z,20.31
2022-09-10T11:43:46.764Z,20.15
2022-09-10T11:46:18.618Z,19.98
2022-09-10T11:48:57.874Z,19.84
2022-09-10T11:51:30.542Z,20.20
2022-09-10T11:53:58.044Z,20.52
2022-09-10T11:56:50.477Z,20.70
2022-09-10T11:59:36.400Z,20.98
2022-09-10T12:02:36.907Z,21.72
2022-09-10T12:05:16.012Z,22.10
2022-09-10T12:07:47.298Z,21.42
2022-09-10T12:10:49.607Z,20.93
2022-09-10T12:13:16.397Z,20.74
2022-09-10T12:15:56.670Z,20.71
2022-09-10T12:18:28.329Z,20.40
2022-09-10T12:21:25.333Z,19.69
2022-09-10T12:23:52.800Z,19.70
2022-09-10T12:26:20.574Z,19.52
2022-09-10T12:28:53.354Z,19.73
2022-09-10T12:31:22.001Z,20.03
2022-09-10T12:33:48.735Z,20.14
2022-09-10T12:36:35.305Z,20.22
2022-09-10T12:39:24.856Z,20.86
2022-09-10T12:41:51.459Z,21.22
2022-09-10T12:44:36.431Z,21.19
2022-09-10T12:47:15.789Z,21.10
2022-09-10T12:49:51.991Z,20.86
2022-09-10T12:52:38.586Z,20.88
2022-09-10T12:55:21.570Z,20.90
2022-09-10T12:58:16.182Z,21.04
2022-09-10T13:00:55.057Z,20.87
2022-09-10T13:03:25.089Z,20.46
2022-09-10T13:05:55.350Z,20.50
2022-09-10T13:08:44.069Z,20.10
2022-09-10T13:11:16.037Z,19.93
2022-09-10T13:13:51.638Z,19.53
2022-09-10T13:16:36.610Z,19.37
2022-09-10T13:19:12.191Z,18.95
2022-09-10T13:21:44.691Z,18.56
2022-09-10T13:24:33.897Z,18.42
2022-09-10T13:27:03.311Z,18.39
2022-09-10T13:29:40.576Z,18.61
2022-09-10T13:32:14.182Z,19.12
2022-09-10T13:35:21.034Z,20.12
2022-09-10T13:38:12.809Z,20.26
2022-09-10T13:41:13.062Z,19.74
2022-09-10T13:43:51.900Z,19.51
2022-09-10T13:46:36.836Z,19.22
2022-09-10T13:49:06.463Z,19.10
2022-09-10T13:51:51.818Z,19.10
2022-09-10T13:54:21.223Z,19.20
2022-09-10T13:56:47.985Z,19.35
2022-09-10T13:59:22.341Z,19.30
2022-09-10T14:01:54.388Z,19.41
2022-09-10T14:04:40.889Z,19.74
2022-09-10T14:07:16.247Z,19.57
2022-09-10T14:09:46.570Z,19.53
2022-09-10T14:12:15.971Z,19.44
2022-09-10T14:14:50.305Z,19.92
2022-09-10T14:17:34.224Z,19.91
2022-09-10T14:20:05.431Z,19.81
2022-09-10T14:22:32.444Z,19.76
2022-09-10T14:25:01.737Z,19.42
2022-09-10T14:27:32.311Z,19.35
2022-09-10T14:30:23.590Z,19.52
2022-09-10T14:32:51.793Z,19.34
2022-09-10T14:35:37.535Z,19.25
2022-09-10T14:38:20.747Z,19.26
2022-09-10T14:40:47.902Z,19.48
2022-09-10T14:43:31.036Z,19.75
2022-09-10T14:46:47.522Z,19.87
2022-09-10T14:49:16.029Z,19.79
2022-09-10T14:51:43.216Z,19.78
2022-09-10T14:54:12.832Z,19.51
2022-09-10T14:56:42.239Z,19.42
2022-09-10T14:59:32.161Z,19.64
2022-09-10T15:02:03.151Z,19.97
2022-09-10T15:04:50.117Z,20.18
2022-09-10T15:07:16.793Z,19.97
2022-09-10T15:09:43.568Z,19.98
2022-09-10T15:12:27.979Z,19.99
2022-09-10T15:14:55.209Z,19.99
2022-09-10T15:17:21.836Z,19.66
2022-09-10T15:19:48.648Z,19.55
2022-09-10T15:22:29.748Z,19.68
2022-09-10T15:25:12.560Z,19.67
2022-09-10T15:27:39.451Z,19.41
2022-09-10T15:30:06.800Z,19.60
2022-09-10T15:32:33.475Z,19.54
2022-09-10T15:35:00.102Z,19.67
2022-09-10T15:37:27.029Z,19.71
2022-09-10T15:39:54.545Z,19.73
2022-09-10T15:42:21.288Z,19.60
2022-09-10T15:44:47.981Z,19.57
2022-09-10T15:47:14.902Z,19.33
2022-09-10T15:49:41.591Z,19.26
2022-09-10T15:52:08.623Z,19.27
2022-09-10T15:54:35.359Z,19.53
2022-09-10T15:57:02.033Z,19.81
2022-09-10T15:59:28.721Z,19.51
2022-09-10T16:01:55.484Z,19.25
2022-09-10T16:04:23.022Z,19.00
2022-09-10T16:06:49.733Z,18.97
2022-09-10T16:09:16.448Z,19.00
2022-09-10T16:11:43.308Z,18.88
2022-09-10T16:14:13.281Z,18.89
2022-09-10T16:16:40.945Z,18.86
2022-09-10T16:19:09.142Z,18.49
2022-09-10T16:21:37.334Z,18.62
2022-09-10T16:24:05.608Z,18.57
2022-09-10T16:26:41.160Z,18.63
2022-09-10T16:29:14.090Z,18.61
2022-09-10T16:31:41.024Z,18.54
2022-09-10T16:34:11.638Z,18.51
2022-09-10T16:36:39.389Z,18.43
2022-09-10T16:39:12.042Z,18.28
2022-09-10T16:41:43.820Z,18.16
2022-09-10T16:44:14.061Z,18.01
2022-09-10T16:46:42.160Z,17.31
2022-09-10T16:49:13.459Z,17.22
2022-09-10T16:51:45.927Z,17.14
2022-09-10T16:54:14.057Z,16.98
2022-09-10T16:56:43.017Z,17.15
2022-09-10T16:59:30.010Z,17.21
2022-09-10T17:01:59.493Z,17.29
2022-09-10T17:04:59.402Z,17.44
2022-09-10T17:07:26.042Z,17.44
2022-09-10T17:09:57.495Z,17.62
2022-09-10T17:12:27.180Z,17.75
2022-09-10T17:14:53.770Z,17.80
2022-09-10T17:17:20.432Z,17.75
2022-09-10T17:19:47.042Z,17.74
2022-09-10T17:22:13.691Z,17.54
2022-09-10T17:24:44.733Z,17.57
2022-09-10T17:27:11.400Z,17.42
2022-09-10T17:29:49.777Z,17.58
2022-09-10T17:32:16.391Z,17.51
2022-09-10T17:34:43.048Z,17.64
2022-09-10T17:37:09.759Z,17.41
2022-09-10T17:39:36.438Z,17.58
2022-09-10T17:42:03.247Z,17.49
2022-09-10T17:44:29.987Z,17.32
2022-09-10T17:46:59.587Z,17.18
2022-09-10T17:49:26.269Z,17.30
2022-09-10T17:51:53.442Z,17.12
2022-09-10T17:54:20.222Z,17.17
2022-09-10T17:56:46.822Z,17.15
2022-09-10T17:59:14.414Z,17.13
2022-09-10T18:01:46.232Z,16.92
2022-09-10T18:04:14.293Z,17.19
2022-09-10T18:06:41.597Z,17.08
2022-09-10T18:09:08.649Z,17.10
2022-09-10T18:11:38.529Z,16.95
2022-09-10T18:14:18.685Z,17.06
2022-09-10T18:16:46.376Z,17.15
2022-09-10T18:19:16.541Z,16.93
2022-09-10T18:21:45.125Z,17.17
2022-09-10T18:24:23.625Z,17.17
2022-09-10T18:26:53.744Z,17.14
2022-09-10T18:29:27.035Z,17.32
2022-09-10T18:31:56.410Z,17.35
2022-09-10T18:34:27.799Z,17.28
2022-09-10T18:36:57.820Z,17.32
2022-09-10T18:39:27.103Z,17.34
2022-09-10T18:41:54.782Z,17.41
2022-09-10T18:44:27.505Z,17.33
2022-09-10T18:46:54.697Z,17.59
2022-09-10T18:49:24.341Z,17.57
2022-09-10T18:51:52.284Z,17.48
2022-09-10T18:54:20.651Z,17.57
2022-09-10T18:56:48.918Z,17.48
2022-09-10T18:59:20.424Z,17.56
2022-09-10T19:01:48.719Z,17.57
2022-09-10T19:04:21.706Z,17.58
2022-09-10T19:06:49.605Z,17.60
2022-09-10T19:09:19.537Z,17.69
2022-09-10T19:11:48.605Z,17.73
2022-09-10T19:14:16.069Z,17.74
2022-09-10T19:16:43.002Z,17.68
2022-09-10T19:19:18.531Z,17.52
2022-09-10T19:22:07.262Z,17.44
2022-09-10T19:24:54.501Z,17.41
2022-09-10T19:27:22.731Z,17.10
2022-09-10T19:29:50.128Z,17.16
2022-09-10T19:32:17.469Z,17.19
2022-09-10T19:34:44.322Z,17.33
2022-09-10T19:37:20.830Z,17.35
2022-09-10T19:39:47.608Z,17.25
2022-09-10T19:42:14.312Z,17.05
2022-09-10T19:44:41.962Z,17.12
2022-09-10T19:47:08.624Z,16.95
2022-09-10T19:49:35.326Z,17.28
2022-09-10T19:52:04.199Z,17.23
2022-09-10T19:54:30.952Z,17.19
2022-09-10T19:56:57.647Z,16.79
2022-09-10T19:59:24.425Z,17.02
2022-09-10T20:01:51.256Z,16.97
2022-09-10T20:04:17.996Z,16.66
2022-09-10T20:06:46.051Z,16.90
2022-09-10T20:09:13.581Z,16.88
2022-09-10T20:11:41.064Z,16.85
2022-09-10T20:14:11.328Z,16.93
2022-09-10T20:16:43.655Z,16.88
2022-09-10T20:19:21.861Z,16.98
2022-09-10T20:21:49.139Z,16.70
2022-09-10T20:24:16.354Z,16.76
2022-09-10T20:26:43.934Z,16.65
2022-09-10T20:29:12.714Z,16.87
2022-09-10T20:31:41.538Z,16.82
2022-09-10T20:34:14.443Z,16.82
2022-09-10T20:36:44.460Z,16.74
2022-09-10T20:39:17.093Z,16.61
2022-09-10T20:41:44.643Z,16.20
2022-09-10T20:44:13.945Z,16.21
2022-09-10T20:46:44.860Z,16.29
2022-09-10T20:49:13.602Z,16.34
2022-09-10T20:51:40.982Z,16.43
2022-09-10T20:54:11.310Z,16.41
2022-09-10T20:56:45.015Z,16.46
2022-09-10T20:59:14.611Z,16.36
2022-09-10T21:01:44.023Z,16.13
2022-09-10T21:04:11.036Z,16.21
2022-09-10T21:06:37.822Z,16.06
2022-09-10T21:09:05.470Z,16.29
2022-09-10T21:11:34.191Z,16.34
2022-09-10T21:14:21.002Z,16.12
2022-09-10T21:16:47.976Z,16.35
2022-09-10T21:19:16.394Z,16.34
2022-09-10T21:21:44.953Z,16.34
2022-09-10T21:24:14.532Z,16.28
2022-09-10T21:26:43.376Z,16.22
2022-09-10T21:29:15.825Z,15.93
2022-09-10T21:31:43.240Z,15.72
2022-09-10T21:34:10.064Z,16.17
2022-09-10T21:36:38.242Z,16.18
2022-09-10T21:39:07.310Z,16.20
2022-09-10T21:41:39.830Z,16.18
2022-09-10T21:44:23.124Z,15.91
2022-09-10T21:46:50.468Z,16.18
2022-09-10T21:49:18.391Z,16.19
2022-09-10T21:51:45.126Z,16.12
2022-09-10T21:54:14.876Z,16.15
2022-09-10T21:56:41.506Z,16.10
2022-09-10T21:59:09.813Z,16.13
2022-09-10T22:01:36.535Z,16.15
2022-09-10T22:04:04.049Z,16.03
2022-09-10T22:06:35.316Z,16.05
2022-09-10T22:09:08.223Z,16.05
2022-09-10T22:11:46.816Z,16.06
2022-09-10T22:14:16.625Z,16.07
2022-09-10T22:16:43.956Z,16.08
2022-09-10T22:19:18.012Z,16.10
2022-09-10T22:21:45.565Z,15.91
2022-09-10T22:24:13.929Z,16.06
2022-09-10T22:26:43.231Z,15.98
2022-09-10T22:29:11.687Z,16.16
2022-09-10T22:31:38.713Z,16.11
2022-09-10T22:34:11.598Z,16.11
2022-09-10T22:36:40.169Z,16.26
2022-09-10T22:39:14.381Z,16.27
2022-09-10T22:41:42.114Z,16.35
2022-09-10T22:44:09.172Z,16.41
2022-09-10T22:46:36.935Z,16.42
2022-09-10T22:49:04.692Z,16.34
2022-09-10T22:51:54.816Z,16.28
2022-09-10T22:54:22.633Z,16.24
2022-09-10T22:56:49.298Z,16.28
2022-09-10T22:59:16.007Z,16.09
2022-09-10T23:01:45.919Z,16.53
2022-09-10T23:04:12.811Z,16.37
2022-09-10T23:06:39.705Z,16.25
2022-09-10T23:09:15.239Z,16.30
2022-09-10T23:11:44.001Z,16.26
2022-09-10T23:14:15.451Z,16.24
2022-09-10T23:16:46.582Z,16.21
2022-09-10T23:19:17.096Z,16.07
2022-09-10T23:21:46.450Z,16.23
2022-09-10T23:24:15.458Z,16.23
2022-09-10T23:26:42.857Z,16.35
2022-09-10T23:29:10.154Z,16.42
2022-09-10T23:31:38.421Z,16.30
2022-09-10T23:34:05.956Z,16.29
2022-09-10T23:36:35.688Z,16.39
2022-09-10T23:39:05.989Z,16.31
2022-09-10T23:41:33.071Z,16.29
2022-09-10T23:43:59.702Z,16.05
2022-09-10T23:46:27.031Z,16.21
2022-09-10T23:48:53.628Z,16.24
2022-09-10T23:51:21.046Z,16.13
2022-09-10T23:53:48.543Z,16.13
2022-09-10T23:56:17.552Z,16.11
2022-09-10T23:58:44.523Z,16.09
